Time;durP1;ratioP1;P1;durP2;ratioP2;P2;SDS_P1;SDS_P2;PMS_P1;PMS_P2;Temp;Humidity;BMP_temperature;BMP_pressure;BME280_temperature;BME280_humidity;BME280_pressure;Samples;Min_cycle;Max_cycle;Signal;HPM_P1;HPM_P2
2022/09/24 00:00:43;;;;;;;77.60;50.25;;;12.30;99.90;;;;;;5045027;28;20052;-45
2022/09/24 00:03:10;;;;;;;77.85;50.90;;;12.30;99.90;;;;;;5044756;28;20047;-45
2022/09/24 00:05:40;;;;;;;78.35;51.92;;;12.50;99.90;;;;;;5045376;28;20052;-45
2022/09/24 00:08:08;;;;;;;78.30;53.47;;;12.30;99.90;;;;;;5044658;28;20141;-45
2022/09/24 00:10:38;;;;;;;85.63;54.20;;;12.40;99.90;;;;;;5045010;28;20116;-45
2022/09/24 00:13:10;;;;;;;81.60;51.15;;;12.20;99.90;;;;;;5045119;28;20443;-45
2022/09/24 00:15:42;;;;;;;70.75;48.38;;;12.40;99.90;;;;;;5045580;28;20049;-46
2022/09/24 00:18:10;;;;;;;80.97;52.10;;;12.90;99.90;;;;;;5045300;28;20056;-45
2022/09/24 00:20:37;;;;;;;71.80;50.03;;;12.40;99.90;;;;;;5045488;28;20130;-45
2022/09/24 00:23:03;;;;;;;82.35;52.22;;;12.30;99.90;;;;;;5044833;28;20037;-45
2022/09/24 00:28:14;;;;;;;84.03;52.60;;;12.50;99.90;;;;;;5045191;28;20757;-45
2022/09/24 00:30:41;;;;;;;84.57;53.25;;;12.50;99.90;;;;;;5045517;28;20049;-45
2022/09/24 00:33:07;;;;;;;82.85;53.38;;;12.40;99.90;;;;;;5044876;28;20513;-45
2022/09/24 00:35:34;;;;;;;75.80;52.15;;;12.50;99.90;;;;;;5045344;28;20274;-45
2022/09/24 00:38:00;;;;;;;86.32;54.80;;;12.30;99.90;;;;;;5043554;28;20063;-45
2022/09/24 00:40:29;;;;;;;78.15;52.35;;;12.40;99.90;;;;;;5045403;28;20037;-45
2022/09/24 00:42:55;;;;;;;83.35;53.17;;;12.40;99.90;;;;;;5045175;28;20097;-45
2022/09/24 00:45:22;;;;;;;80.95;53.15;;;12.50;99.90;;;;;;5045794;28;20108;-45
2022/09/24 00:47:49;;;;;;;89.82;55.25;;;12.70;99.90;;;;;;5045172;28;20051;-45
2022/09/24 00:50:25;;;;;;;99.18;59.38;;;12.50;99.90;;;;;;5044545;28;20443;-45
2022/09/24 00:52:57;;;;;;;126.00;61.13;;;12.40;99.90;;;;;;5046040;28;20041;-46
2022/09/24 00:55:25;;;;;;;82.80;54.25;;;12.50;99.90;;;;;;5048830;28;20219;-45
2022/09/24 00:57:58;;;;;;;91.32;57.70;;;12.40;99.90;;;;;;5048807;28;20395;-46
2022/09/24 01:00:24;;;;;;;119.82;62.72;;;12.60;99.90;;;;;;5047709;28;20398;-45
2022/09/24 01:03:01;;;;;;;98.32;60.67;;;12.40;99.90;;;;;;5049006;28;20315;-45
2022/09/24 01:05:28;;;;;;;95.63;58.30;;;12.40;99.90;;;;;;5049003;28;20036;-46
2022/09/24 01:07:54;;;;;;;106.07;61.00;;;12.40;99.90;;;;;;5048802;28;20044;-45
2022/09/24 01:10:47;;;;;;;103.30;61.17;;;12.60;99.90;;;;;;5048313;28;20593;-45
2022/09/24 01:13:40;;;;;;;119.72;61.72;;;12.40;99.90;;;;;;5048593;28;20529;-45
2022/09/24 01:16:16;;;;;;;101.97;59.78;;;12.40;99.90;;;;;;5048912;28;20380;-46
2022/09/24 01:19:08;;;;;;;85.82;54.78;;;12.80;99.90;;;;;;5048966;28;20233;-45
2022/09/24 01:21:36;;;;;;;97.40;59.88;;;12.40;99.90;;;;;;5048371;28;20047;-45
2022/09/24 01:24:14;;;;;;;110.38;60.42;;;13.10;99.90;;;;;;5048148;28;20075;-46
2022/09/24 01:26:46;;;;;;;124.07;65.00;;;12.50;99.90;;;;;;5048467;28;20055;-45
2022/09/24 01:29:27;;;;;;;122.18;62.90;;;12.40;99.90;;;;;;5048404;28;20049;-45
2022/09/24 01:32:06;;;;;;;95.20;56.75;;;12.40;99.90;;;;;;5048688;28;20457;-45
2022/09/24 01:34:48;;;;;;;85.43;54.03;;;12.50;99.90;;;;;;5047881;28;20041;-45
2022/09/24 01:37:17;;;;;;;114.43;62.50;;;12.00;99.90;;;;;;5047990;28;20439;-45
2022/09/24 01:39:45;;;;;;;87.95;54.60;;;12.40;99.90;;;;;;5048162;28;20562;-45
2022/09/24 01:42:12;;;;;;;135.75;63.75;;;12.50;99.90;;;;;;5048516;28;20051;-45
2022/09/24 01:44:43;;;;;;;105.95;59.92;;;12.50;99.90;;;;;;5048307;28;20356;-45
2022/09/24 01:47:12;;;;;;;143.35;65.10;;;12.30;99.90;;;;;;5048421;28;20128;-45
2022/09/24 01:49:38;;;;;;;105.25;61.13;;;12.40;99.90;;;;;;5048075;28;20036;-45
2022/09/24 01:52:09;;;;;;;233.43;77.88;;;12.50;99.90;;;;;;5047582;28;20554;-45
2022/09/24 01:54:40;;;;;;;138.98;66.38;;;12.30;99.90;;;;;;5047370;28;20498;-45
2022/09/24 01:57:21;;;;;;;152.05;68.22;;;12.40;99.90;;;;;;5047496;28;20068;-45
2022/09/24 01:59:51;;;;;;;103.43;60.85;;;12.30;99.90;;;;;;5047811;28;20053;-45
2022/09/24 02:02:55;;;;;;;98.95;57.50;;;12.30;99.90;;;;;;5047528;28;20048;-45
2022/09/24 02:05:53;;;;;;;101.72;61.20;;;12.30;99.90;;;;;;5044471;28;20410;-45
2022/09/24 02:08:35;;;;;;;119.63;65.15;;;12.30;99.90;;;;;;5047461;28;20426;-46
2022/09/24 02:11:11;;;;;;;153.60;69.85;;;12.40;99.90;;;;;;5047674;28;20057;-45
2022/09/24 02:13:50;;;;;;;167.73;67.90;;;12.30;99.90;;;;;;5047762;28;20119;-45
2022/09/24 02:16:21;;;;;;;128.05;65.70;;;12.30;99.90;;;;;;5047591;28;20052;-46
2022/09/24 02:18:51;;;;;;;96.03;56.23;;;12.30;99.90;;;;;;5047512;28;20302;-45
2022/09/24 02:21:21;;;;;;;114.60;64.15;;;12.40;99.90;;;;;;5046954;28;20138;-45
2022/09/24 02:23:56;;;;;;;149.30;67.07;;;12.40;99.90;;;;;;5046660;28;20495;-45
2022/09/24 02:26:22;;;;;;;114.75;65.35;;;12.30;99.90;;;;;;5046951;28;20072;-45
2022/09/24 02:28:48;;;;;;;103.38;58.58;;;12.30;99.90;;;;;;5047106;28;20467;-45
2022/09/24 02:31:18;;;;;;;147.50;65.57;;;12.50;99.90;;;;;;5046632;28;20336;-45
2022/09/24 02:36:32;;;;;;;144.43;65.32;;;12.40;99.90;;;;;;5047307;28;20060;-46
2022/09/24 02:38:58;;;;;;;105.70;61.78;;;12.30;99.90;;;;;;5047045;28;20036;-45
2022/09/24 02:41:24;;;;;;;114.22;62.78;;;12.30;99.90;;;;;;5046948;28;20393;-45
2022/09/24 02:43:51;;;;;;;117.22;64.80;;;12.40;99.90;;;;;;5046748;28;20131;-45
2022/09/24 02:46:17;;;;;;;129.18;64.50;;;12.30;99.90;;;;;;5047068;28;20041;-45
2022/09/24 02:48:42;;;;;;;200.32;76.10;;;12.50;99.90;;;;;;5047619;28;20766;-45
2022/09/24 02:51:08;;;;;;;147.65;67.68;;;12.30;99.90;;;;;;5046875;28;20040;-45
2022/09/24 02:53:34;;;;;;;108.85;63.35;;;12.30;99.90;;;;;;5046699;28;20502;-45
2022/09/24 02:56:00;;;;;;;142.70;65.22;;;12.30;99.90;;;;;;5046517;28;20198;-45
2022/09/24 02:58:27;;;;;;;135.23;65.57;;;12.30;99.90;;;;;;5046418;28;20479;-44
2022/09/24 03:00:56;;;;;;;126.82;63.90;;;12.30;99.90;;;;;;5046936;28;20040;-46
2022/09/24 03:03:22;;;;;;;115.72;61.13;;;12.30;99.90;;;;;;5046155;28;20095;-45
2022/09/24 03:05:51;;;;;;;128.98;67.30;;;12.30;99.90;;;;;;5046847;28;20044;-46
2022/09/24 03:08:21;;;;;;;135.32;64.55;;;12.60;99.90;;;;;;5046102;28;20048;-45
2022/09/24 03:10:47;;;;;;;123.80;64.80;;;12.30;99.90;;;;;;5046765;28;20106;-45
2022/09/24 03:13:13;;;;;;;128.20;63.20;;;12.30;99.90;;;;;;5046911;28;20132;-45
2022/09/24 03:15:38;;;;;;;114.95;61.63;;;12.30;99.90;;;;;;5046764;28;20123;-45
2022/09/24 03:18:04;;;;;;;153.65;66.70;;;12.40;99.90;;;;;;5046010;28;20052;-46
2022/09/24 03:20:30;;;;;;;118.15;60.72;;;12.20;99.90;;;;;;5046057;28;20045;-45
2022/09/24 03:22:56;;;;;;;118.82;62.03;;;12.20;99.90;;;;;;5046076;28;20047;-45
2022/09/24 03:25:21;;;;;;;152.80;66.18;;;12.20;99.90;;;;;;5045616;28;20424;-45
2022/09/24 03:27:47;;;;;;;112.72;60.25;;;12.20;99.90;;;;;;5045560;28;20051;-46
2022/09/24 03:32:58;;;;;;;143.75;63.25;;;12.20;99.90;;;;;;5045599;28;20398;-45
2022/09/24 03:35:24;;;;;;;241.30;71.85;;;12.10;99.90;;;;;;5045140;28;20041;-45
2022/09/24 03:37:50;;;;;;;250.30;76.68;;;12.00;99.90;;;;;;5043628;28;20677;-46
2022/09/24 03:40:16;;;;;;;161.73;67.47;;;12.10;99.90;;;;;;5045146;28;20041;-46
2022/09/24 03:42:42;;;;;;;239.82;77.70;;;12.10;99.90;;;;;;5045302;28;20793;-45
2022/09/24 03:45:08;;;;;;;144.05;65.78;;;12.00;99.90;;;;;;5045580;28;20132;-45
2022/09/24 03:47:34;;;;;;;143.57;61.67;;;12.00;99.90;;;;;;5045551;28;20049;-46
2022/09/24 03:50:01;;;;;;;127.95;60.30;;;12.20;99.90;;;;;;5045666;28;20123;-46
2022/09/24 03:52:28;;;;;;;141.52;63.13;;;12.10;99.90;;;;;;5045356;28;20120;-45
2022/09/24 03:54:54;;;;;;;130.35;64.47;;;12.10;99.90;;;;;;5045559;28;20809;-45
2022/09/24 03:57:20;;;;;;;155.02;66.60;;;12.90;99.90;;;;;;5044752;28;20045;-45
2022/09/24 03:59:46;;;;;;;232.55;74.88;;;11.80;99.90;;;;;;5046092;28;20037;-46
2022/09/24 04:02:12;;;;;;;180.18;72.28;;;12.10;99.90;;;;;;5045841;28;20486;-45
2022/09/24 04:04:38;;;;;;;131.80;60.00;;;12.00;99.90;;;;;;5045638;28;20044;-45
2022/09/24 04:07:04;;;;;;;183.00;73.80;;;12.30;99.90;;;;;;5045722;28;20391;-45
2022/09/24 04:09:30;;;;;;;134.77;66.53;;;11.10;99.90;;;;;;5043469;28;20068;-46
2022/09/24 04:11:57;;;;;;;138.02;65.57;;;12.10;99.90;;;;;;5045269;28;20045;-45
2022/09/24 04:14:23;;;;;;;148.20;65.68;;;12.20;99.90;;;;;;5044844;28;20052;-46
2022/09/24 04:16:49;;;;;;;179.43;71.20;;;12.10;99.90;;;;;;5045112;28;20390;-46
2022/09/24 04:19:15;;;;;;;156.85;70.07;;;12.80;99.90;;;;;;5044852;28;20494;-47
2022/09/24 04:21:42;;;;;;;142.07;68.50;;;12.30;99.90;;;;;;5045744;28;20178;-46
2022/09/24 04:24:08;;;;;;;176.88;67.40;;;12.20;99.90;;;;;;5045692;28;20455;-45
2022/09/24 04:26:34;;;;;;;116.78;61.35;;;12.10;99.90;;;;;;5045289;28;20084;-46
2022/09/24 04:28:59;;;;;;;151.27;66.55;;;12.20;99.90;;;;;;5045267;28;20065;-45
2022/09/24 04:31:28;;;;;;;217.02;73.15;;;12.50;99.90;;;;;;5045459;28;20041;-47
2022/09/24 04:33:54;;;;;;;129.30;64.35;;;12.10;99.90;;;;;;5045189;28;20072;-45
2022/09/24 04:36:20;;;;;;;185.55;67.93;;;12.30;99.90;;;;;;5044696;28;20292;-46
2022/09/24 04:38:46;;;;;;;116.45;62.10;;;12.40;99.90;;;;;;5045084;28;20051;-45
2022/09/24 04:41:14;;;;;;;115.55;60.67;;;12.30;99.90;;;;;;5045000;28;20060;-46
2022/09/24 04:43:40;;;;;;;201.45;70.20;;;12.40;99.90;;;;;;5044315;28;20044;-45
2022/09/24 04:46:08;;;;;;;155.50;65.28;;;12.20;99.90;;;;;;5044560;28;20051;-46
2022/09/24 04:48:37;;;;;;;108.13;56.75;;;12.70;99.90;;;;;;5044557;28;20045;-45
2022/09/24 04:51:07;;;;;;;190.82;71.22;;;12.30;99.90;;;;;;5044948;28;20049;-46
2022/09/24 04:53:36;;;;;;;124.55;60.13;;;12.30;99.90;;;;;;5044813;28;20041;-45
2022/09/24 04:56:02;;;;;;;149.50;66.03;;;12.20;99.90;;;;;;5044585;28;20048;-46
2022/09/24 04:58:28;;;;;;;195.20;71.10;;;12.40;99.90;;;;;;5044842;28;20037;-46
2022/09/24 05:00:54;;;;;;;117.38;60.63;;;12.50;99.90;;;;;;5044943;28;20052;-45
2022/09/24 05:03:20;;;;;;;253.38;72.68;;;12.20;99.90;;;;;;5044663;28;20044;-46
2022/09/24 05:05:46;;;;;;;208.25;72.93;;;12.40;99.90;;;;;;5044546;28;20533;-45
2022/09/24 05:08:13;;;;;;;371.85;81.03;;;12.40;99.90;;;;;;5044521;28;20511;-45
2022/09/24 05:10:39;;;;;;;150.48;66.43;;;12.50;99.90;;;;;;5044316;28;20072;-46
2022/09/24 05:13:05;;;;;;;143.80;65.00;;;12.30;99.90;;;;;;5044690;28;20533;-45
2022/09/24 05:15:31;;;;;;;133.73;63.15;;;12.50;99.90;;;;;;5044734;28;20372;-45
2022/09/24 05:17:57;;;;;;;136.57;61.08;;;12.40;99.90;;;;;;5045017;28;20483;-45
2022/09/24 05:20:23;;;;;;;147.10;61.60;;;12.60;99.90;;;;;;5044794;28;20041;-45
2022/09/24 05:22:49;;;;;;;182.73;67.10;;;12.30;99.90;;;;;;5044599;28;20503;-46
2022/09/24 05:25:17;;;;;;;151.43;65.22;;;12.30;99.90;;;;;;5044455;28;20044;-46
2022/09/24 05:27:50;;;;;;;179.40;63.47;;;12.30;99.90;;;;;;5044521;28;20049;-45
2022/09/24 05:30:18;;;;;;;177.15;66.38;;;12.50;99.90;;;;;;5045213;28;20076;-46
2022/09/24 05:32:45;;;;;;;277.58;79.05;;;12.90;99.90;;;;;;5044659;28;20053;-45
2022/09/24 05:35:12;;;;;;;185.70;67.38;;;13.10;99.90;;;;;;5044817;28;20506;-45
2022/09/24 05:37:38;;;;;;;205.60;71.57;;;12.40;99.90;;;;;;5044402;28;20091;-46
2022/09/24 05:42:50;;;;;;;166.15;62.78;;;12.40;99.90;;;;;;5048835;28;20048;-45
2022/09/24 05:45:17;;;;;;;175.80;66.38;;;12.40;99.90;;;;;;5048553;28;20045;-45
2022/09/24 05:47:46;;;;;;;144.25;60.30;;;12.50;99.90;;;;;;5047990;28;20041;-45
2022/09/24 05:50:12;;;;;;;144.75;60.03;;;12.50;99.90;;;;;;5048021;28;20044;-46
2022/09/24 05:52:41;;;;;;;289.10;74.35;;;12.40;99.90;;;;;;5047664;28;20495;-45
2022/09/24 05:55:09;;;;;;;140.02;62.72;;;12.50;99.90;;;;;;5047743;28;20123;-46
2022/09/24 05:57:35;;;;;;;285.45;75.03;;;12.40;99.90;;;;;;5047463;28;20129;-46
2022/09/24 06:00:01;;;;;;;248.25;73.53;;;12.40;99.90;;;;;;5047884;28;20546;-45
2022/09/24 06:02:26;;;;;;;156.10;65.22;;;12.40;99.90;;;;;;5047495;28;20041;-46
2022/09/24 06:04:52;;;;;;;128.52;62.33;;;12.40;99.90;;;;;;5047616;28;20489;-45
2022/09/24 06:07:19;;;;;;;229.93;67.68;;;12.40;99.90;;;;;;5047771;28;20391;-45
2022/09/24 06:09:46;;;;;;;180.82;66.13;;;13.10;99.90;;;;;;5044925;28;20060;-46
2022/09/24 06:12:13;;;;;;;298.92;80.22;;;12.90;99.90;;;;;;5047847;28;20414;-45
2022/09/24 06:14:41;;;;;;;171.18;67.03;;;12.80;99.90;;;;;;5047175;28;20399;-46
2022/09/24 06:17:07;;;;;;;137.27;60.83;;;12.50;99.90;;;;;;5047244;28;20127;-45
2022/09/24 06:19:33;;;;;;;249.02;73.22;;;12.60;99.90;;;;;;5047043;28;20060;-46
2022/09/24 06:21:58;;;;;;;255.98;74.03;;;12.90;99.90;;;;;;5046813;28;20040;-45
2022/09/24 06:24:24;;;;;;;154.77;66.22;;;12.60;99.90;;;;;;5046878;28;20382;-45
2022/09/24 06:26:50;;;;;;;249.68;73.90;;;12.50;99.90;;;;;;5046856;28;20052;-46
2022/09/24 06:29:16;;;;;;;172.70;70.15;;;12.60;99.90;;;;;;5047063;28;20051;-46
2022/09/24 06:31:43;;;;;;;151.52;61.20;;;12.80;99.90;;;;;;5046965;28;20394;-48
2022/09/24 06:34:09;;;;;;;171.00;69.43;;;12.60;99.90;;;;;;5047628;28;20049;-46
2022/09/24 06:36:35;;;;;;;136.40;61.50;;;12.90;99.90;;;;;;5046779;28;20048;-46
2022/09/24 06:39:01;;;;;;;150.70;63.67;;;12.70;99.90;;;;;;5047420;28;20052;-46
2022/09/24 06:41:26;;;;;;;264.27;76.30;;;12.70;99.90;;;;;;5046672;28;20076;-46
2022/09/24 06:43:55;;;;;;;130.15;65.43;;;12.80;99.90;;;;;;5046497;28;20479;-46
2022/09/24 06:46:24;;;;;;;142.18;64.93;;;13.00;99.90;;;;;;5046488;28;20517;-46
2022/09/24 06:48:50;;;;;;;140.45;63.80;;;12.90;99.90;;;;;;5046663;28;20368;-46
2022/09/24 06:51:16;;;;;;;255.20;77.80;;;12.90;99.90;;;;;;5044467;28;20533;-46
2022/09/24 06:53:42;;;;;;;139.88;65.57;;;12.90;99.90;;;;;;5046109;28;20037;-46
2022/09/24 06:56:08;;;;;;;141.18;67.60;;;13.00;99.90;;;;;;5046214;28;20033;-46
2022/09/24 06:58:33;;;;;;;121.38;62.88;;;13.00;99.90;;;;;;5046327;28;20398;-46
2022/09/24 07:01:01;;;;;;;184.60;68.72;;;13.60;99.90;;;;;;5046642;28;20033;-45
2022/09/24 07:03:30;;;;;;;127.68;60.45;;;13.10;99.90;;;;;;5047113;28;20091;-45
2022/09/24 07:05:59;;;;;;;148.40;63.05;;;13.10;99.90;;;;;;5046100;28;20059;-45
2022/09/24 07:08:25;;;;;;;127.60;58.40;;;13.10;99.90;;;;;;5046680;28;20045;-46
2022/09/24 07:10:51;;;;;;;162.32;62.67;;;13.20;99.90;;;;;;5045783;28;20057;-47
2022/09/24 07:13:17;;;;;;;130.13;58.78;;;14.00;99.90;;;;;;5046362;28;20051;-46
2022/09/24 07:15:43;;;;;;;139.07;59.05;;;13.40;99.90;;;;;;5045362;28;20542;-45
2022/09/24 07:18:09;;;;;;;97.55;52.63;;;13.30;99.90;;;;;;5046132;28;20051;-45
2022/09/24 07:20:35;;;;;;;115.35;52.72;;;13.60;99.90;;;;;;5045606;28;20535;-46
2022/09/24 07:23:05;;;;;;;95.57;52.78;;;13.40;99.90;;;;;;5046615;28;20049;-45
2022/09/24 07:25:32;;;;;;;124.13;55.58;;;13.50;99.90;;;;;;5046457;28;20155;-45
2022/09/24 07:28:03;;;;;;;125.70;50.35;;;13.60;99.90;;;;;;5046133;28;20127;-46
2022/09/24 07:30:30;;;;;;;92.93;46.40;;;13.70;99.90;;;;;;5045765;28;20076;-45
2022/09/24 07:32:56;;;;;;;61.92;37.75;;;13.50;99.90;;;;;;5045670;28;20356;-46
2022/09/24 07:35:22;;;;;;;68.70;37.55;;;13.70;99.90;;;;;;5044586;28;20049;-45
2022/09/24 07:37:54;;;;;;;71.03;36.65;;;13.80;99.90;;;;;;5044625;28;20103;-45
2022/09/24 07:40:22;;;;;;;67.22;36.88;;;13.80;99.90;;;;;;5045597;28;20533;-45
2022/09/24 07:42:48;;;;;;;75.90;36.45;;;13.60;99.90;;;;;;5045772;28;20044;-45
2022/09/24 07:45:16;;;;;;;103.10;39.75;;;13.70;99.90;;;;;;5046138;28;20048;-46
2022/09/24 07:47:41;;;;;;;78.80;36.03;;;13.70;99.90;;;;;;5045153;28;20355;-45
2022/09/24 07:50:07;;;;;;;48.60;25.85;;;13.80;99.90;;;;;;5045581;28;20056;-47
2022/09/24 07:52:33;;;;;;;35.30;18.23;;;13.90;99.90;;;;;;5043535;28;20139;-45
2022/09/24 07:54:59;;;;;;;31.05;14.73;;;14.10;99.90;;;;;;5044945;28;20155;-45
2022/09/24 07:57:26;;;;;;;19.85;8.32;;;13.90;99.90;;;;;;5044615;28;20127;-45
2022/09/24 07:59:52;;;;;;;17.30;4.90;;;14.60;99.90;;;;;;5044290;28;20545;-46
2022/09/24 08:02:19;;;;;;;8.93;3.60;;;14.30;99.90;;;;;;5043813;28;20037;-45
2022/09/24 08:04:45;;;;;;;11.43;3.03;;;14.70;99.90;;;;;;5044636;28;20037;-45
2022/09/24 08:07:11;;;;;;;10.02;2.10;;;14.30;99.90;;;;;;5044086;28;20056;-46
2022/09/24 08:09:37;;;;;;;12.07;2.10;;;14.40;99.90;;;;;;5044223;28;20056;-46
2022/09/24 08:12:03;;;;;;;11.80;2.47;;;14.50;99.90;;;;;;5044621;28;20049;-45
2022/09/24 08:14:29;;;;;;;16.33;2.10;;;14.70;99.90;;;;;;5044205;28;20128;-47
2022/09/24 08:16:55;;;;;;;13.32;2.22;;;14.90;99.90;;;;;;5043539;28;20049;-45
2022/09/24 08:19:21;;;;;;;8.98;1.60;;;14.90;99.90;;;;;;5043805;28;20121;-46
2022/09/24 08:21:47;;;;;;;15.50;1.48;;;15.20;99.90;;;;;;5044538;28;20509;-46
2022/09/24 08:24:14;;;;;;;6.93;1.52;;;15.00;99.90;;;;;;5043289;28;20040;-46
2022/09/24 08:26:40;;;;;;;17.30;1.80;;;15.20;99.90;;;;;;5044679;28;20076;-47
2022/09/24 08:29:06;;;;;;;10.35;2.47;;;15.20;99.90;;;;;;5044377;28;20315;-45
2022/09/24 08:31:33;;;;;;;9.85;1.55;;;15.20;99.90;;;;;;5045047;28;20049;-46
2022/09/24 08:34:00;;;;;;;11.65;1.27;;;15.30;99.90;;;;;;5045116;28;20087;-47
2022/09/24 08:36:26;;;;;;;10.60;1.75;;;15.20;99.90;;;;;;5045064;28;20502;-46
2022/09/24 08:38:56;;;;;;;7.70;1.60;;;15.10;99.90;;;;;;5045050;28;20098;-46
2022/09/24 08:42:04;;;;;;;11.82;1.70;;;15.30;99.90;;;;;;5045281;28;20048;-46
2022/09/24 08:47:44;;;;;;;6.85;1.00;;;15.10;99.90;;;;;;5044766;28;20052;-45
2022/09/24 08:50:20;;;;;;;6.18;0.90;;;15.00;99.90;;;;;;5045030;28;20079;-46
2022/09/24 08:52:45;;;;;;;7.95;1.33;;;15.00;99.90;;;;;;5044763;28;20072;-45
2022/09/24 08:55:20;;;;;;;10.82;0.93;;;15.00;99.90;;;;;;5045108;28;20103;-45
2022/09/24 08:57:54;;;;;;;10.43;1.90;;;15.80;99.90;;;;;;5044771;28;20044;-45
2022/09/24 09:00:20;;;;;;;15.05;1.30;;;15.20;99.90;;;;;;5045009;28;20128;-45
2022/09/24 09:02:57;;;;;;;13.50;2.28;;;15.30;99.90;;;;;;5044908;28;20128;-45
2022/09/24 09:05:42;;;;;;;12.93;1.38;;;15.40;99.90;;;;;;5044580;28;20506;-45
2022/09/24 09:08:16;;;;;;;14.23;1.30;;;15.40;99.90;;;;;;5044718;28;20041;-45
2022/09/24 09:10:42;;;;;;;9.50;1.52;;;15.40;99.90;;;;;;5044991;28;20092;-45
2022/09/24 09:13:32;;;;;;;16.45;2.10;;;15.50;99.90;;;;;;5044465;28;20521;-45
2022/09/24 09:16:15;;;;;;;16.33;1.77;;;15.50;99.90;;;;;;5048758;28;20056;-45
2022/09/24 09:18:43;;;;;;;14.93;1.58;;;15.60;99.90;;;;;;5048801;28;20123;-45
2022/09/24 09:21:15;;;;;;;9.32;1.38;;;15.70;99.90;;;;;;5048450;28;20033;-45
2022/09/24 09:23:48;;;;;;;8.65;0.85;;;15.80;99.90;;;;;;5048827;28;20051;-45
2022/09/24 09:26:15;;;;;;;12.25;1.50;;;15.80;99.90;;;;;;5047030;28;20037;-45
2022/09/24 09:28:41;;;;;;;9.10;1.77;;;15.90;99.90;;;;;;5048820;28;20118;-45
2022/09/24 09:31:33;;;;;;;14.93;2.05;;;16.30;99.90;;;;;;5048654;28;20475;-45
2022/09/24 09:34:16;;;;;;;15.95;1.65;;;15.90;99.90;;;;;;5048240;28;20103;-45
2022/09/24 09:36:55;;;;;;;7.53;1.73;;;15.90;99.90;;;;;;5048552;28;20076;-45
2022/09/24 09:39:37;;;;;;;13.13;1.00;;;15.80;99.90;;;;;;5048603;28;20032;-45
2022/09/24 09:42:17;;;;;;;13.07;1.15;;;15.80;99.90;;;;;;5048232;28;20070;-45
2022/09/24 09:44:45;;;;;;;10.77;1.33;;;15.70;99.90;;;;;;5048540;28;20098;-45
2022/09/24 09:47:42;;;;;;;8.82;1.00;;;15.70;99.90;;;;;;5048422;28;20132;-46
2022/09/24 09:50:11;;;;;;;7.97;1.02;;;15.60;99.90;;;;;;5048600;28;20056;-46
2022/09/24 09:52:38;;;;;;;8.73;1.35;;;15.50;99.90;;;;;;5048176;28;20056;-45
2022/09/24 09:55:05;;;;;;;10.38;1.15;;;15.70;99.90;;;;;;5048305;28;20090;-45
2022/09/24 09:57:34;;;;;;;6.72;0.95;;;15.30;99.90;;;;;;5047807;28;20577;-45
2022/09/24 10:00:01;;;;;;;12.38;1.67;;;15.30;99.90;;;;;;5047978;28;20107;-45
2022/09/24 10:02:30;;;;;;;13.43;1.33;;;15.20;99.90;;;;;;5048012;28;20379;-45
2022/09/24 10:05:01;;;;;;;6.40;0.77;;;15.20;99.90;;;;;;5047494;28;20037;-45
2022/09/24 10:07:27;;;;;;;9.43;1.05;;;15.70;99.90;;;;;;5047209;28;20854;-45
2022/09/24 10:10:11;;;;;;;9.00;0.90;;;15.60;99.90;;;;;;5047013;28;20134;-45
2022/09/24 10:12:37;;;;;;;8.43;1.17;;;15.20;99.90;;;;;;5047189;28;20846;-45
2022/09/24 10:15:14;;;;;;;9.80;1.65;;;15.10;99.90;;;;;;5047605;28;20166;-45
2022/09/24 10:17:41;;;;;;;6.47;0.60;;;15.20;99.90;;;;;;5047860;28;20103;-45
2022/09/24 10:20:28;;;;;;;8.63;0.77;;;15.20;99.90;;;;;;5047025;28;20040;-45
2022/09/24 10:23:03;;;;;;;4.70;0.50;;;15.10;99.90;;;;;;5047321;28;20087;-46
2022/09/24 10:25:31;;;;;;;7.07;1.00;;;15.20;99.90;;;;;;5046424;28;20044;-45
2022/09/24 10:30:58;;;;;;;10.88;0.70;;;15.10;99.90;;;;;;5046449;28;20580;-45
2022/09/24 10:33:25;;;;;;;7.63;0.85;;;15.10;99.90;;;;;;5046680;28;20048;-46
2022/09/24 10:36:06;;;;;;;13.45;0.98;;;15.10;99.90;;;;;;5047412;28;20049;-45
2022/09/24 10:38:33;;;;;;;7.32;0.80;;;15.10;99.90;;;;;;5047088;28;20124;-45
2022/09/24 10:41:00;;;;;;;7.93;0.90;;;15.00;99.90;;;;;;5047326;28;20044;-45
2022/09/24 10:43:25;;;;;;;12.70;1.27;;;15.00;99.90;;;;;;5047016;28;20045;-45
2022/09/24 10:46:20;;;;;;;8.93;0.85;;;15.00;99.90;;;;;;5046929;28;20041;-45
2022/09/24 10:49:12;;;;;;;6.05;0.85;;;14.90;99.90;;;;;;5046980;28;20041;-45
2022/09/24 10:51:50;;;;;;;6.72;0.85;;;14.90;99.90;;;;;;5046422;28;20055;-45
2022/09/24 10:54:28;;;;;;;8.65;0.90;;;14.90;99.90;;;;;;5045996;28;20048;-48
2022/09/24 10:56:56;;;;;;;7.25;0.85;;;15.00;99.90;;;;;;5046434;28;20071;-47
2022/09/24 10:59:59;;;;;;;4.78;0.70;;;15.40;99.90;;;;;;5045934;28;20048;-48
2022/09/24 11:02:58;;;;;;;10.85;1.17;;;15.10;99.90;;;;;;5047983;28;20051;-47
2022/09/24 11:05:36;;;;;;;10.73;0.88;;;15.20;99.90;;;;;;5047441;28;20045;-48
2022/09/24 11:08:27;;;;;;;10.05;1.13;;;15.10;99.90;;;;;;5045687;28;20132;-48
2022/09/24 11:11:23;;;;;;;9.87;1.20;;;15.10;99.90;;;;;;5047210;28;20053;-47
2022/09/24 11:14:15;;;;;;;10.32;0.98;;;15.10;99.90;;;;;;5046298;28;20167;-47
2022/09/24 11:16:41;;;;;;;7.00;0.82;;;15.00;99.90;;;;;;5046010;28;20407;-47
2022/09/24 11:19:24;;;;;;;12.00;0.98;;;15.00;99.90;;;;;;5045755;28;20044;-48
2022/09/24 11:22:18;;;;;;;7.40;0.98;;;15.00;99.90;;;;;;5046262;28;20068;-48
2022/09/24 11:25:03;;;;;;;5.82;0.80;;;15.00;99.90;;;;;;5046315;28;20110;-47
2022/09/24 11:27:53;;;;;;;10.20;1.27;;;15.30;99.90;;;;;;5046327;28;20520;-47
2022/09/24 11:30:34;;;;;;;4.85;0.98;;;14.90;99.90;;;;;;5046052;28;20091;-47
2022/09/24 11:33:11;;;;;;;10.07;0.93;;;15.40;99.90;;;;;;5045840;28;20040;-48
2022/09/24 11:36:03;;;;;;;7.55;0.73;;;14.90;99.90;;;;;;5045634;28;20045;-47
2022/09/24 11:38:53;;;;;;;6.85;0.98;;;15.00;99.90;;;;;;5044716;28;20049;-49
2022/09/24 11:41:42;;;;;;;13.02;0.95;;;15.00;99.90;;;;;;5045442;28;20044;-47
2022/09/24 11:44:45;;;;;;;8.43;0.60;;;15.00;99.90;;;;;;5045698;28;20045;-47
2022/09/24 11:47:18;;;;;;;12.85;0.57;;;15.00;99.90;;;;;;5033136;28;20126;-48
2022/09/24 11:49:49;;;;;;;6.75;0.52;;;15.10;99.90;;;;;;5046556;28;20449;-48
2022/09/24 11:52:39;;;;;;;6.68;1.05;;;15.10;99.90;;;;;;5046037;28;20044;-47
2022/09/24 11:55:23;;;;;;;7.22;0.30;;;15.20;99.90;;;;;;5045934;28;20055;-48
2022/09/24 11:58:18;;;;;;;9.90;0.52;;;15.20;99.90;;;;;;5045277;28;20502;-48
2022/09/24 12:00:58;;;;;;;7.47;0.95;;;15.10;99.90;;;;;;5043269;28;20451;-47
2022/09/24 12:03:44;;;;;;;7.20;0.65;;;15.10;99.90;;;;;;5045425;28;20124;-47
2022/09/24 12:06:15;;;;;;;6.38;0.93;;;15.10;99.90;;;;;;5045474;28;20395;-47
2022/09/24 12:09:00;;;;;;;7.65;0.63;;;14.90;99.90;;;;;;5045715;28;20049;-49
2022/09/24 12:11:40;;;;;;;7.88;0.43;;;14.90;99.90;;;;;;5045361;28;20088;-46
2022/09/24 12:14:27;;;;;;;5.00;0.60;;;14.80;99.90;;;;;;5045535;28;20399;-47
2022/09/24 12:17:00;;;;;;;7.72;0.60;;;14.80;99.90;;;;;;5045441;28;20052;-48
2022/09/24 12:19:41;;;;;;;3.78;0.40;;;14.80;99.90;;;;;;5044917;28;20537;-49
2022/09/24 12:22:08;;;;;;;9.47;0.80;;;14.80;99.90;;;;;;5045743;28;20040;-48
2022/09/24 12:24:49;;;;;;;5.55;0.70;;;14.70;99.90;;;;;;5045811;28;20420;-48
2022/09/24 12:27:19;;;;;;;5.95;0.47;;;14.60;99.90;;;;;;5045274;28;20044;-48
2022/09/24 12:33:02;;;;;;;6.25;0.90;;;14.50;99.90;;;;;;5045249;28;20051;-47
2022/09/24 12:35:27;;;;;;;6.82;1.00;;;14.50;99.90;;;;;;5044793;28;20506;-47
2022/09/24 12:38:16;;;;;;;5.38;0.90;;;14.50;99.90;;;;;;5045227;28;20091;-46
2022/09/24 12:40:53;;;;;;;6.20;0.60;;;14.40;99.90;;;;;;5045407;28;20368;-46
2022/09/24 12:43:35;;;;;;;8.43;1.42;;;14.40;99.90;;;;;;5044912;28;20479;-47
2022/09/24 12:46:04;;;;;;;7.43;1.02;;;14.30;99.90;;;;;;5044895;28;20091;-46
2022/09/24 12:48:33;;;;;;;5.70;0.40;;;14.30;99.90;;;;;;5045405;28;20403;-49
2022/09/24 12:51:01;;;;;;;8.40;0.55;;;14.30;99.90;;;;;;5049541;28;20037;-47
2022/09/24 12:53:33;;;;;;;6.15;0.70;;;14.30;99.90;;;;;;5049283;28;20080;-48
2022/09/24 12:56:01;;;;;;;3.90;0.35;;;13.90;99.90;;;;;;5049612;28;20041;-47
2022/09/24 12:58:40;;;;;;;4.30;0.40;;;14.40;99.90;;;;;;5049053;28;20052;-48
2022/09/24 13:01:25;;;;;;;7.47;1.40;;;14.30;99.90;;;;;;5049468;28;20037;-48
2022/09/24 13:04:12;;;;;;;6.72;0.60;;;14.40;99.90;;;;;;5049127;28;20069;-46
2022/09/24 13:06:39;;;;;;;5.57;0.63;;;14.30;99.90;;;;;;5048669;28;20580;-46
2022/09/24 13:09:34;;;;;;;4.50;0.75;;;14.30;99.90;;;;;;5048555;28;20094;-47